createdAt,value
2018-08-12T00:04:52.829Z,75.72
2018-08-12T00:09:45.727Z,75.85
2018-08-12T00:14:38.678Z,75.47
2018-08-12T00:19:31.676Z,75.88
2018-08-12T00:24:24.933Z,75.41
2018-08-12T00:29:17.994Z,75.12
2018-08-12T00:34:11.116Z,74.88
2018-08-12T00:39:07.746Z,74.54
2018-08-12T00:44:00.920Z,73.86
2018-08-12T00:48:54.058Z,73.73
2018-08-12T00:53:47.610Z,73.41
2018-08-12T00:58:40.950Z,72.55
2018-08-12T01:03:33.898Z,72.11
2018-08-12T01:08:26.937Z,71.36
2018-08-12T01:13:20.034Z,72.73
2018-08-12T01:18:12.977Z,72.12
2018-08-12T01:23:05.984Z,72.18
2018-08-12T01:27:59.066Z,72.01
2018-08-12T01:32:52.073Z,71.93
2018-08-12T01:37:46.006Z,72.24
2018-08-12T01:42:39.585Z,71.98
2018-08-12T01:47:32.741Z,72.35
2018-08-12T01:52:26.392Z,72.41
2018-08-12T01:57:19.538Z,72.52
2018-08-12T02:02:12.586Z,72.48
2018-08-12T02:07:05.625Z,72.73
2018-08-12T02:11:58.603Z,72.67
2018-08-12T02:16:51.644Z,72.41
2018-08-12T02:21:45.556Z,72.74
2018-08-12T02:26:38.567Z,72.64
2018-08-12T02:31:31.629Z,72.86
2018-08-12T02:36:24.612Z,72.82
2018-08-12T02:41:17.754Z,72.49
2018-08-12T02:46:10.785Z,72.68
2018-08-12T02:51:03.720Z,72.88
2018-08-12T02:55:56.778Z,73.16
2018-08-12T03:00:49.814Z,73.21
2018-08-12T03:05:42.995Z,72.89
2018-08-12T03:10:36.113Z,73.35
2018-08-12T03:15:29.235Z,73.05
2018-08-12T03:20:22.207Z,73.43
2018-08-12T03:25:15.266Z,73.18
2018-08-12T03:30:09.836Z,72.56
2018-08-12T03:35:02.745Z,73.11
2018-08-12T03:39:55.657Z,73.29
2018-08-12T03:44:48.767Z,72.72
2018-08-12T03:49:41.914Z,72.75
2018-08-12T03:54:34.878Z,72.90
2018-08-12T03:59:28.002Z,72.75
2018-08-12T04:04:21.071Z,72.63
2018-08-12T04:09:14.063Z,72.31
2018-08-12T04:14:07.534Z,72.62
2018-08-12T04:19:00.702Z,72.23
2018-08-12T04:23:53.802Z,71.96
2018-08-12T04:28:47.078Z,71.49
2018-08-12T04:33:40.203Z,71.03
2018-08-12T04:38:33.142Z,70.43
2018-08-12T04:43:26.186Z,69.92
2018-08-12T04:48:19.119Z,69.00
2018-08-12T04:53:12.152Z,69.00
2018-08-12T04:58:05.212Z,68.32
2018-08-12T05:02:58.178Z,67.87
2018-08-12T05:07:51.652Z,66.72
2018-08-12T05:12:44.734Z,66.63
2018-08-12T05:17:38.334Z,65.73
2018-08-12T05:22:31.410Z,65.48
2018-08-12T05:27:24.393Z,64.16
2018-08-12T05:32:17.570Z,62.99
2018-08-12T05:37:10.572Z,62.65
2018-08-12T05:42:03.598Z,62.36
2018-08-12T05:46:57.015Z,61.89
2018-08-12T05:51:50.003Z,62.27
2018-08-12T05:56:43.118Z,61.14
2018-08-12T06:01:36.209Z,60.55
2018-08-12T06:06:29.226Z,59.82
2018-08-12T06:11:22.177Z,59.78
2018-08-12T06:16:15.668Z,59.02
2018-08-12T06:21:08.734Z,58.35
2018-08-12T06:26:01.770Z,57.98
2018-08-12T06:30:54.783Z,57.58
2018-08-12T06:35:47.842Z,58.24
2018-08-12T06:40:41.150Z,56.91
2018-08-12T06:45:34.296Z,55.51
2018-08-12T06:50:27.411Z,54.33
2018-08-12T06:55:20.401Z,53.14
2018-08-12T07:00:15.353Z,53.69
2018-08-12T07:05:09.531Z,53.04
2018-08-12T07:10:03.303Z,52.64
2018-08-12T07:14:56.834Z,52.59
2018-08-12T07:19:49.825Z,51.99
2018-08-12T07:24:42.809Z,50.93
2018-08-12T07:29:35.833Z,52.25
2018-08-12T07:34:28.761Z,50.82
2018-08-12T07:39:21.718Z,50.83
2018-08-12T07:44:14.733Z,49.95
2018-08-12T07:49:07.784Z,50.69
2018-08-12T07:54:01.115Z,49.30
2018-08-12T07:58:54.213Z,48.95
2018-08-12T08:03:47.468Z,47.87
2018-08-12T08:08:40.546Z,48.01
2018-08-12T08:13:34.569Z,45.77
2018-08-12T08:18:28.246Z,46.32
2018-08-12T08:23:21.845Z,45.52
2018-08-12T08:28:14.879Z,44.14
2018-08-12T08:33:09.688Z,45.86
2018-08-12T08:38:02.935Z,43.62
2018-08-12T08:42:56.408Z,44.30
2018-08-12T08:47:50.702Z,42.19
2018-08-12T08:52:44.265Z,41.32
2018-08-12T08:57:37.617Z,34.86
2018-08-12T09:02:31.218Z,32.90
2018-08-12T09:07:24.310Z,35.80
2018-08-12T09:12:17.380Z,35.38
2018-08-12T09:17:10.505Z,33.89
2018-08-12T09:22:04.226Z,35.45
2018-08-12T09:26:57.336Z,34.05
2018-08-12T09:31:50.292Z,34.59
2018-08-12T09:36:43.238Z,33.89
2018-08-12T09:41:36.282Z,34.52
2018-08-12T09:46:30.171Z,35.12
2018-08-12T09:51:23.601Z,35.37
2018-08-12T09:56:16.699Z,32.80
2018-08-12T10:01:09.663Z,34.98
2018-08-12T10:06:03.169Z,35.33
2018-08-12T10:10:57.086Z,32.43
2018-08-12T10:15:50.362Z,31.62
2018-08-12T10:20:43.405Z,31.10
2018-08-12T10:25:36.346Z,33.34
2018-08-12T10:30:29.334Z,34.07
2018-08-12T10:35:22.445Z,32.85
2018-08-12T10:40:17.450Z,32.22
2018-08-12T10:45:11.380Z,31.79
2018-08-12T10:50:06.146Z,32.56
2018-08-12T10:54:59.240Z,32.63
2018-08-12T10:59:52.600Z,31.97
2018-08-12T11:04:45.767Z,31.41
2018-08-12T11:09:38.956Z,32.40
2018-08-12T11:14:32.147Z,33.34
2018-08-12T11:19:25.576Z,33.33
2018-08-12T11:24:18.753Z,33.99
2018-08-12T11:29:12.636Z,34.36
2018-08-12T11:34:06.229Z,34.23
2018-08-12T11:38:59.406Z,34.90
2018-08-12T11:43:52.540Z,34.62
2018-08-12T11:48:45.692Z,34.12
2018-08-12T11:53:38.629Z,35.42
2018-08-12T11:58:32.241Z,34.92
2018-08-12T12:03:25.496Z,36.05
2018-08-12T12:08:18.964Z,36.19
2018-08-12T12:13:12.715Z,35.99
2018-08-12T12:18:07.318Z,35.12
2018-08-12T12:23:00.399Z,34.02
2018-08-12T12:27:53.974Z,32.59
2018-08-12T12:32:48.142Z,33.71
2018-08-12T12:37:41.860Z,34.19
2018-08-12T12:42:34.936Z,33.53
2018-08-12T12:47:28.282Z,34.00
2018-08-12T12:52:21.969Z,33.07
2018-08-12T12:57:15.167Z,31.65
2018-08-12T13:02:08.238Z,32.77
2018-08-12T13:07:01.728Z,33.23
2018-08-12T13:11:55.122Z,33.76
2018-08-12T13:18:17.529Z,34.07
2018-08-12T13:23:10.590Z,33.94
2018-08-12T13:28:03.685Z,35.74
2018-08-12T13:32:56.875Z,37.54
2018-08-12T13:37:50.158Z,35.92
2018-08-12T13:42:44.135Z,35.69
2018-08-12T13:47:37.434Z,34.42
2018-08-12T13:52:30.624Z,30.70
2018-08-12T13:57:24.412Z,30.87
2018-08-12T14:02:17.658Z,33.59
2018-08-12T14:07:10.700Z,35.66
2018-08-12T14:12:03.782Z,35.71
2018-08-12T14:16:56.744Z,36.69
2018-08-12T14:21:49.684Z,35.85
2018-08-12T14:26:42.749Z,35.07
2018-08-12T14:31:35.693Z,35.31
2018-08-12T14:36:28.681Z,35.30
2018-08-12T14:41:21.821Z,33.50
2018-08-12T14:46:14.813Z,32.68
2018-08-12T14:51:07.833Z,32.32
2018-08-12T14:56:02.487Z,33.83
2018-08-12T15:00:55.516Z,34.80
2018-08-12T15:05:48.930Z,34.34
2018-08-12T15:10:41.906Z,35.01
2018-08-12T15:15:35.070Z,35.59
2018-08-12T15:20:28.166Z,33.82
2018-08-12T15:25:21.695Z,34.84
2018-08-12T15:30:14.840Z,34.45
2018-08-12T15:35:08.551Z,35.11
2018-08-12T15:40:02.185Z,34.49
2018-08-12T15:44:55.573Z,35.21
2018-08-12T15:49:49.174Z,34.87
2018-08-12T15:54:42.474Z,34.55
2018-08-12T15:59:35.518Z,33.52
2018-08-12T16:04:28.596Z,33.76
2018-08-12T16:09:24.339Z,34.55
2018-08-12T16:14:17.486Z,33.89
2018-08-12T16:19:20.411Z,34.88
2018-08-12T16:24:15.283Z,36.72
2018-08-12T16:29:09.628Z,37.13
2018-08-12T16:34:02.837Z,37.81
2018-08-12T16:38:56.625Z,37.51
2018-08-12T16:43:49.754Z,38.34
2018-08-12T16:48:43.119Z,39.04
2018-08-12T16:53:36.241Z,39.62
2018-08-12T16:58:29.773Z,40.95
2018-08-12T17:03:23.137Z,41.54
2018-08-12T17:08:16.327Z,42.63
2018-08-12T17:13:10.179Z,43.39
2018-08-12T17:18:03.398Z,44.62
2018-08-12T17:22:56.786Z,44.97
2018-08-12T17:27:49.813Z,45.80
2018-08-12T17:32:42.897Z,48.66
2018-08-12T17:37:36.008Z,52.55
2018-08-12T17:42:29.350Z,56.00
2018-08-12T17:47:22.304Z,57.66
2018-08-12T17:52:16.316Z,58.61
2018-08-12T17:57:09.285Z,60.06
2018-08-12T18:02:02.375Z,61.11
2018-08-12T18:06:55.414Z,61.37
2018-08-12T18:11:48.549Z,61.62
2018-08-12T18:16:41.556Z,61.63
2018-08-12T18:21:34.627Z,60.48
2018-08-12T18:26:28.146Z,60.58
2018-08-12T18:31:21.383Z,60.93
2018-08-12T18:36:14.636Z,60.28
2018-08-12T18:41:08.374Z,60.78
2018-08-12T18:46:01.576Z,60.88
2018-08-12T18:50:54.666Z,59.96
2018-08-12T18:55:48.874Z,61.12
2018-08-12T19:00:45.602Z,60.94
2018-08-12T19:05:44.679Z,61.54
2018-08-12T19:10:38.559Z,62.06
2018-08-12T19:15:31.610Z,62.47
2018-08-12T19:20:25.297Z,63.03
2018-08-12T19:25:18.315Z,63.12
2018-08-12T19:30:12.703Z,63.01
2018-08-12T19:35:06.096Z,64.43
2018-08-12T19:40:00.081Z,64.17
2018-08-12T19:44:53.134Z,64.32
2018-08-12T19:49:46.319Z,65.83
2018-08-12T19:54:42.827Z,66.76
2018-08-12T19:59:35.883Z,67.99
2018-08-12T20:04:28.914Z,69.20
2018-08-12T20:09:22.030Z,69.92
2018-08-12T20:14:15.390Z,69.94
2018-08-12T20:19:08.590Z,70.28
2018-08-12T20:24:05.605Z,70.30
2018-08-12T20:28:58.546Z,70.60
2018-08-12T20:33:51.819Z,70.30
2018-08-12T20:38:45.033Z,70.80
2018-08-12T20:43:38.115Z,71.14
2018-08-12T20:48:31.838Z,71.88
2018-08-12T20:53:25.265Z,72.72
2018-08-12T20:58:18.400Z,73.02
2018-08-12T21:03:11.558Z,72.94
2018-08-12T21:08:04.663Z,73.39
2018-08-12T21:12:58.407Z,72.66
2018-08-12T21:17:51.408Z,72.55
2018-08-12T21:22:44.340Z,72.57
2018-08-12T21:27:37.905Z,72.75
2018-08-12T21:32:33.104Z,72.54
2018-08-12T21:37:29.345Z,72.33
2018-08-12T21:42:24.496Z,72.79
2018-08-12T21:47:20.152Z,73.58
2018-08-12T21:52:15.339Z,73.59
2018-08-12T21:57:13.234Z,73.45
2018-08-12T22:02:08.654Z,73.60
2018-08-12T22:07:04.256Z,73.31
2018-08-12T22:12:00.557Z,73.44
2018-08-12T22:16:55.317Z,72.95
2018-08-12T22:21:48.534Z,72.87
2018-08-12T22:26:41.597Z,71.59
2018-08-12T22:31:34.878Z,71.45
2018-08-12T22:36:28.974Z,71.58
2018-08-12T22:41:22.058Z,71.96
2018-08-12T22:46:15.153Z,70.15
2018-08-12T22:51:08.170Z,69.63
2018-08-12T22:56:01.162Z,70.28
2018-08-12T23:00:54.250Z,70.74
2018-08-12T23:05:47.288Z,71.24
2018-08-12T23:10:40.837Z,71.27
2018-08-12T23:16:17.222Z,70.95
2018-08-12T23:21:12.206Z,71.11
2018-08-12T23:26:05.525Z,70.38
2018-08-12T23:30:58.766Z,70.21
2018-08-12T23:35:52.147Z,69.93
2018-08-12T23:40:45.257Z,70.11
2018-08-12T23:45:38.239Z,70.30
2018-08-12T23:50:31.390Z,70.34
2018-08-12T23:55:24.506Z,71.06
